createdAt,value
2019-02-09T00:02:09.014Z,7.51
2019-02-09T00:05:15.101Z,7.35
2019-02-09T00:08:20.995Z,7.60
2019-02-09T00:11:26.981Z,7.68
2019-02-09T00:14:32.940Z,7.31
2019-02-09T00:17:38.942Z,7.57
2019-02-09T00:20:44.819Z,7.56
2019-02-09T00:23:50.773Z,7.54
2019-02-09T00:26:56.518Z,7.49
2019-02-09T00:30:02.293Z,7.57
2019-02-09T00:33:08.275Z,7.50
2019-02-09T00:36:14.168Z,7.39
2019-02-09T00:39:19.945Z,7.57
2019-02-09T00:42:25.718Z,7.59
2019-02-09T00:45:31.611Z,7.64
2019-02-09T00:48:37.402Z,7.63
2019-02-09T00:51:43.162Z,7.80
2019-02-09T00:54:49.019Z,7.79
2019-02-09T00:57:56.140Z,7.15
2019-02-09T01:01:42.018Z,7.69
2019-02-09T01:04:49.514Z,7.88
2019-02-09T01:07:55.572Z,8.05
2019-02-09T01:11:01.443Z,7.85
2019-02-09T01:14:07.354Z,7.74
2019-02-09T01:17:13.119Z,7.02
2019-02-09T01:20:21.867Z,7.30
2019-02-09T01:23:27.632Z,7.19
2019-02-09T01:26:33.521Z,7.18
2019-02-09T01:29:39.373Z,7.37
2019-02-09T01:32:45.249Z,7.34
2019-02-09T01:35:51.026Z,6.85
2019-02-09T01:38:56.799Z,7.10
2019-02-09T01:42:02.574Z,7.16
2019-02-09T01:45:10.057Z,7.13
2019-02-09T01:48:15.826Z,7.15
2019-02-09T01:51:21.709Z,7.14
2019-02-09T01:54:27.476Z,6.88
2019-02-09T01:57:33.368Z,6.74
2019-02-09T02:00:39.343Z,7.14
2019-02-09T02:03:45.245Z,7.23
2019-02-09T02:06:51.002Z,7.05
2019-02-09T02:09:56.780Z,7.06
2019-02-09T02:13:03.533Z,7.29
2019-02-09T02:16:09.503Z,7.02
2019-02-09T02:19:15.294Z,7.15
2019-02-09T02:22:21.077Z,7.25
2019-02-09T02:25:27.281Z,6.86
2019-02-09T02:28:33.192Z,6.95
2019-02-09T02:31:38.961Z,7.09
2019-02-09T02:34:44.791Z,6.89
2019-02-09T02:37:50.676Z,7.05
2019-02-09T02:40:56.424Z,7.06
2019-02-09T02:44:02.203Z,6.99
2019-02-09T02:47:07.970Z,6.81
2019-02-09T02:50:16.432Z,7.31
2019-02-09T02:53:22.195Z,7.04
2019-02-09T02:56:28.006Z,7.04
2019-02-09T02:59:33.877Z,7.30
2019-02-09T03:02:39.730Z,6.98
2019-02-09T03:05:45.526Z,6.92
2019-02-09T03:08:51.465Z,7.19
2019-02-09T03:12:03.590Z,7.14
2019-02-09T03:15:16.616Z,7.24
2019-02-09T03:18:22.411Z,7.40
2019-02-09T03:21:28.229Z,7.30
2019-02-09T03:24:34.011Z,7.21
2019-02-09T03:27:39.894Z,7.20
2019-02-09T03:30:48.430Z,7.05
2019-02-09T03:33:53.242Z,6.90
2019-02-09T03:36:59.113Z,6.80
2019-02-09T03:40:06.512Z,6.88
2019-02-09T03:43:12.281Z,6.86
2019-02-09T03:46:18.146Z,7.04
2019-02-09T03:49:23.923Z,7.06
2019-02-09T03:52:29.897Z,6.69
2019-02-09T03:55:35.658Z,6.56
2019-02-09T03:58:41.448Z,6.81
2019-02-09T04:01:47.211Z,6.62
2019-02-09T04:04:53.083Z,6.99
2019-02-09T04:07:59.043Z,7.27
2019-02-09T04:11:04.998Z,6.90
2019-02-09T04:14:10.963Z,7.21
2019-02-09T04:17:16.752Z,7.28
2019-02-09T04:20:25.007Z,6.72
2019-02-09T04:23:31.384Z,6.93
2019-02-09T04:26:37.175Z,7.03
2019-02-09T04:29:43.062Z,6.88
2019-02-09T04:32:49.091Z,6.81
2019-02-09T04:35:54.910Z,6.66
2019-02-09T04:39:00.812Z,6.75
2019-02-09T04:42:11.194Z,6.52
2019-02-09T04:45:17.623Z,6.57
2019-02-09T04:48:23.546Z,6.72
2019-02-09T04:51:29.455Z,6.59
2019-02-09T04:54:35.387Z,6.74
2019-02-09T04:57:41.374Z,6.67
2019-02-09T05:00:47.303Z,6.77
2019-02-09T05:04:47.233Z,6.85
2019-02-09T05:08:01.340Z,6.91
2019-02-09T05:11:07.253Z,6.91
2019-02-09T05:14:13.195Z,6.69
2019-02-09T05:17:18.966Z,6.44
2019-02-09T05:20:25.436Z,6.64
2019-02-09T05:23:31.361Z,6.64
2019-02-09T05:26:37.146Z,6.56
2019-02-09T05:29:42.913Z,6.40
2019-02-09T05:32:48.926Z,6.40
2019-02-09T05:35:54.698Z,6.31
2019-02-09T05:39:00.606Z,6.40
2019-02-09T05:42:07.943Z,6.51
2019-02-09T05:45:16.785Z,6.44
2019-02-09T05:48:22.557Z,6.66
2019-02-09T05:51:28.337Z,6.46
2019-02-09T05:54:34.128Z,6.51
2019-02-09T05:57:40.129Z,6.49
2019-02-09T06:00:46.101Z,6.24
2019-02-09T06:03:51.857Z,6.31
2019-02-09T06:06:57.706Z,6.23
2019-02-09T06:10:04.249Z,6.36
2019-02-09T06:13:10.355Z,6.29
2019-02-09T06:16:16.192Z,6.32
2019-02-09T06:19:21.953Z,6.36
2019-02-09T06:22:27.943Z,6.72
2019-02-09T06:25:34.944Z,6.48
2019-02-09T06:28:40.766Z,6.68
2019-02-09T06:31:46.568Z,6.85
2019-02-09T06:34:52.333Z,6.98
2019-02-09T06:37:58.663Z,7.05
2019-02-09T06:41:04.627Z,6.45
2019-02-09T06:44:10.533Z,6.10
2019-02-09T06:47:16.332Z,6.76
2019-02-09T06:50:27.853Z,6.38
2019-02-09T06:53:33.798Z,6.02
2019-02-09T06:56:39.570Z,6.53
2019-02-09T06:59:45.335Z,6.33
2019-02-09T07:02:51.325Z,6.93
2019-02-09T07:05:57.139Z,7.14
2019-02-09T07:09:03.471Z,6.76
2019-02-09T07:12:10.063Z,6.95
2019-02-09T07:15:27.611Z,7.29
2019-02-09T07:18:35.094Z,7.03
2019-02-09T07:21:50.772Z,7.38
2019-02-09T07:24:56.663Z,7.41
2019-02-09T07:28:02.533Z,7.40
2019-02-09T07:31:08.517Z,7.25
2019-02-09T07:34:14.309Z,7.60
2019-02-09T07:37:20.207Z,7.70
2019-02-09T07:40:26.365Z,7.74
2019-02-09T07:43:32.219Z,7.69
2019-02-09T07:46:37.973Z,7.51
2019-02-09T07:49:43.782Z,7.27
2019-02-09T07:52:53.302Z,7.29
2019-02-09T07:55:59.177Z,7.63
2019-02-09T07:59:05.111Z,7.09
2019-02-09T08:02:20.390Z,7.43
2019-02-09T08:05:28.626Z,6.37
2019-02-09T08:08:34.407Z,7.33
2019-02-09T08:11:40.341Z,7.50
2019-02-09T08:14:46.262Z,7.08
2019-02-09T08:17:52.046Z,7.32
2019-02-09T08:20:57.944Z,7.77
2019-02-09T08:24:03.731Z,8.13
2019-02-09T08:27:09.586Z,8.26
2019-02-09T08:30:19.277Z,7.69
2019-02-09T08:33:26.186Z,8.25
2019-02-09T08:36:31.983Z,8.24
2019-02-09T08:39:37.929Z,8.29
2019-02-09T08:42:43.786Z,8.45
2019-02-09T08:45:49.642Z,8.87
2019-02-09T08:48:55.393Z,8.69
2019-02-09T08:52:01.290Z,8.72
2019-02-09T08:55:07.337Z,9.00
2019-02-09T08:58:13.105Z,8.95
2019-02-09T09:01:19.035Z,8.74
2019-02-09T09:04:24.851Z,8.74
2019-02-09T09:07:30.648Z,8.91
2019-02-09T09:10:36.509Z,9.37
2019-02-09T09:13:42.378Z,9.49
2019-02-09T09:16:48.424Z,9.55
2019-02-09T09:19:54.187Z,9.66
2019-02-09T09:23:00.194Z,9.95
2019-02-09T09:26:06.280Z,9.84
2019-02-09T09:29:12.069Z,9.86
2019-02-09T09:32:17.854Z,9.43
2019-02-09T09:35:23.879Z,9.83
2019-02-09T09:38:29.646Z,10.07
2019-02-09T09:41:36.431Z,10.03
2019-02-09T09:44:42.344Z,10.57
2019-02-09T09:47:48.330Z,10.93
2019-02-09T09:50:54.173Z,10.84
2019-02-09T09:54:00.210Z,10.61
2019-02-09T09:57:06.222Z,10.67
2019-02-09T10:00:13.780Z,10.70
2019-02-09T10:03:43.306Z,10.49
2019-02-09T10:06:47.596Z,10.94
2019-02-09T10:09:53.978Z,11.36
2019-02-09T10:12:59.885Z,11.41
2019-02-09T10:16:05.865Z,11.66
2019-02-09T10:19:11.696Z,11.29
2019-02-09T10:22:18.100Z,11.07
2019-02-09T10:25:23.952Z,11.45
2019-02-09T10:28:29.829Z,11.74
2019-02-09T10:31:36.562Z,11.84
2019-02-09T10:34:42.316Z,11.49
2019-02-09T10:37:48.513Z,11.27
2019-02-09T10:40:54.390Z,10.96
2019-02-09T10:44:00.183Z,11.37
2019-02-09T10:47:06.390Z,11.67
2019-02-09T10:50:18.560Z,11.83
2019-02-09T10:53:24.349Z,11.76
2019-02-09T10:56:30.124Z,11.58
2019-02-09T10:59:35.882Z,11.68
2019-02-09T11:02:41.642Z,11.98
2019-02-09T11:05:47.605Z,11.21
2019-02-09T11:08:53.417Z,11.20
2019-02-09T11:11:59.286Z,11.73
2019-02-09T11:15:06.046Z,11.97
2019-02-09T11:18:12.061Z,11.64
2019-02-09T11:21:17.906Z,11.46
2019-02-09T11:24:23.814Z,11.89
2019-02-09T11:27:29.592Z,11.90
2019-02-09T11:30:35.573Z,11.84
2019-02-09T11:33:42.003Z,11.68
2019-02-09T11:36:47.936Z,11.95
2019-02-09T11:39:53.813Z,12.04
2019-02-09T11:42:59.836Z,12.11
2019-02-09T11:46:05.813Z,11.76
2019-02-09T11:49:11.579Z,11.54
2019-02-09T11:52:17.390Z,11.65
2019-02-09T11:55:23.345Z,11.97
2019-02-09T11:58:29.156Z,11.88
2019-02-09T12:01:36.072Z,11.94
2019-02-09T12:04:41.997Z,11.90
2019-02-09T12:07:48.875Z,12.20
2019-02-09T12:10:54.635Z,11.97
2019-02-09T12:14:00.475Z,11.60
2019-02-09T12:17:06.455Z,11.84
2019-02-09T12:20:14.286Z,11.94
2019-02-09T12:23:20.040Z,12.00
2019-02-09T12:26:25.816Z,11.90
2019-02-09T12:29:31.605Z,11.54
2019-02-09T12:32:37.528Z,11.45
2019-02-09T12:35:43.911Z,11.28
2019-02-09T12:38:49.802Z,11.09
2019-02-09T12:41:55.716Z,11.39
2019-02-09T12:45:01.660Z,11.65
2019-02-09T12:48:07.967Z,11.87
2019-02-09T12:51:13.832Z,12.09
2019-02-09T12:54:19.746Z,10.12
2019-02-09T12:57:25.596Z,10.98
2019-02-09T13:00:33.116Z,11.28
2019-02-09T13:03:38.873Z,10.91
2019-02-09T13:06:44.651Z,11.49
2019-02-09T13:09:50.460Z,11.21
2019-02-09T13:12:56.226Z,11.35
2019-02-09T13:16:02.008Z,11.47
2019-02-09T13:19:08.011Z,11.12
2019-02-09T13:22:13.933Z,11.16
2019-02-09T13:25:19.860Z,10.97
2019-02-09T13:28:25.755Z,11.15
2019-02-09T13:31:31.544Z,11.63
2019-02-09T13:34:37.309Z,12.24
2019-02-09T13:37:43.185Z,11.65
2019-02-09T13:40:49.064Z,12.12
2019-02-09T13:43:54.873Z,11.97
2019-02-09T13:47:00.649Z,11.43
2019-02-09T13:50:07.394Z,11.27
2019-02-09T13:53:13.544Z,11.72
2019-02-09T13:56:19.362Z,11.90
2019-02-09T13:59:25.139Z,12.26
2019-02-09T14:02:32.246Z,11.95
2019-02-09T14:05:38.222Z,11.54
2019-02-09T14:08:43.992Z,12.07
2019-02-09T14:11:49.776Z,12.03
2019-02-09T14:14:55.624Z,12.01
2019-02-09T14:18:03.468Z,11.98
2019-02-09T14:21:09.360Z,11.99
2019-02-09T14:24:15.226Z,12.37
2019-02-09T14:27:22.870Z,11.62
2019-02-09T14:30:31.423Z,11.47
2019-02-09T14:33:37.465Z,11.51
2019-02-09T14:36:43.249Z,10.63
2019-02-09T14:39:49.062Z,10.85
2019-02-09T14:42:55.077Z,10.26
2019-02-09T14:46:00.992Z,10.55
2019-02-09T14:49:07.652Z,10.48
2019-02-09T14:52:13.583Z,10.72
2019-02-09T14:55:38.467Z,10.95
2019-02-09T14:58:44.306Z,9.99
2019-02-09T15:01:50.095Z,9.97
2019-02-09T15:04:55.902Z,10.44
2019-02-09T15:08:01.888Z,10.57
2019-02-09T15:11:07.832Z,10.04
2019-02-09T15:14:13.613Z,9.79
2019-02-09T15:17:19.401Z,9.91
2019-02-09T15:20:28.115Z,10.30
2019-02-09T15:23:34.028Z,10.02
2019-02-09T15:26:40.004Z,9.63
2019-02-09T15:29:45.856Z,9.64
2019-02-09T15:32:51.723Z,9.36
2019-02-09T15:35:58.711Z,9.03
2019-02-09T15:39:07.863Z,8.91
2019-02-09T15:42:14.061Z,8.99
2019-02-09T15:45:20.805Z,8.90
2019-02-09T15:48:26.568Z,8.75
2019-02-09T15:51:32.436Z,8.87
2019-02-09T15:54:38.216Z,9.14
2019-02-09T15:57:44.180Z,9.11
2019-02-09T16:00:50.089Z,9.05
2019-02-09T16:03:56.042Z,9.04
2019-02-09T16:07:01.849Z,8.99
2019-02-09T16:10:08.594Z,9.27
2019-02-09T16:13:14.566Z,9.31
2019-02-09T16:16:20.327Z,9.34
2019-02-09T16:19:26.167Z,9.28
2019-02-09T16:22:31.956Z,9.34
2019-02-09T16:25:37.932Z,9.33
2019-02-09T16:28:43.685Z,9.43
2019-02-09T16:31:49.561Z,9.50
2019-02-09T16:34:55.336Z,9.47
2019-02-09T16:38:01.334Z,9.35
2019-02-09T16:41:07.326Z,9.37
2019-02-09T16:44:13.154Z,9.41
2019-02-09T16:47:20.092Z,9.36
2019-02-09T16:50:26.285Z,9.40
2019-02-09T16:53:32.161Z,9.27
2019-02-09T16:56:37.967Z,9.39
2019-02-09T16:59:43.853Z,9.26
2019-02-09T17:02:49.862Z,9.32
2019-02-09T17:05:55.662Z,9.23
2019-02-09T17:09:01.515Z,9.13
2019-02-09T17:12:08.821Z,8.94
2019-02-09T17:15:17.818Z,9.14
2019-02-09T17:18:23.702Z,9.16
2019-02-09T17:21:29.538Z,9.18
2019-02-09T17:24:35.289Z,9.08
2019-02-09T17:27:41.139Z,9.11
2019-02-09T17:30:46.906Z,9.12
2019-02-09T17:33:52.683Z,9.09
2019-02-09T17:36:58.443Z,8.97
2019-02-09T17:40:05.742Z,9.10
2019-02-09T17:43:11.948Z,9.09
2019-02-09T17:46:18.629Z,8.92
2019-02-09T17:49:25.511Z,8.82
2019-02-09T17:52:31.363Z,8.87
2019-02-09T17:55:37.250Z,8.92
2019-02-09T17:58:43.057Z,8.66
2019-02-09T18:01:48.802Z,8.63
2019-02-09T18:04:54.559Z,8.85
2019-02-09T18:08:00.353Z,8.82
2019-02-09T18:11:06.566Z,8.39
2019-02-09T18:14:12.338Z,8.42
2019-02-09T18:17:18.258Z,8.52
2019-02-09T18:20:24.155Z,8.65
2019-02-09T18:23:30.052Z,8.66
2019-02-09T18:26:35.997Z,8.25
2019-02-09T18:29:41.879Z,8.36
2019-02-09T18:32:47.931Z,8.38
2019-02-09T18:35:53.760Z,8.52
2019-02-09T18:38:59.655Z,8.21
2019-02-09T18:42:05.583Z,8.08
2019-02-09T18:45:12.720Z,8.27
2019-02-09T18:48:18.506Z,8.49
2019-02-09T18:51:24.410Z,8.43
2019-02-09T18:54:30.211Z,8.42
2019-02-09T18:57:36.210Z,8.38
2019-02-09T19:00:42.624Z,8.33
2019-02-09T19:03:48.523Z,8.41
2019-02-09T19:06:54.374Z,8.40
2019-02-09T19:10:00.220Z,8.38
2019-02-09T19:13:06.503Z,8.34
2019-02-09T19:16:12.496Z,8.42
2019-02-09T19:19:18.452Z,8.48
2019-02-09T19:22:27.883Z,8.27
2019-02-09T19:25:33.893Z,8.38
2019-02-09T19:28:39.708Z,8.42
2019-02-09T19:31:45.565Z,8.49
2019-02-09T19:34:51.351Z,8.26
2019-02-09T19:37:57.375Z,8.02
2019-02-09T19:41:03.192Z,7.81
2019-02-09T19:44:08.961Z,7.64
2019-02-09T19:47:15.759Z,7.69
2019-02-09T19:50:21.852Z,7.08
2019-02-09T19:53:29.621Z,7.31
2019-02-09T19:56:35.377Z,6.70
2019-02-09T19:59:41.168Z,7.08
2019-02-09T20:02:47.044Z,6.47
2019-02-09T20:05:52.799Z,7.18
2019-02-09T20:08:58.780Z,7.55
2019-02-09T20:12:07.273Z,7.39
2019-02-09T20:15:13.856Z,7.62
2019-02-09T20:18:19.733Z,7.71
2019-02-09T20:21:25.688Z,7.80
2019-02-09T20:24:31.478Z,7.50
2019-02-09T20:27:37.296Z,7.25
2019-02-09T20:30:43.541Z,7.02
2019-02-09T20:33:49.439Z,7.53
2019-02-09T20:36:55.257Z,7.53
2019-02-09T20:40:01.065Z,7.55
2019-02-09T20:43:09.200Z,7.53
2019-02-09T20:46:15.033Z,7.46
2019-02-09T20:49:20.834Z,7.43
2019-02-09T20:52:26.619Z,7.44
2019-02-09T20:55:32.509Z,7.49
2019-02-09T20:58:38.282Z,7.42
2019-02-09T21:01:44.111Z,7.39
2019-02-09T21:04:49.963Z,7.01
2019-02-09T21:07:55.893Z,7.24
2019-02-09T21:11:01.693Z,7.36
2019-02-09T21:14:07.574Z,7.44
2019-02-09T21:17:13.576Z,7.46
2019-02-09T21:20:19.571Z,6.88
2019-02-09T21:23:25.458Z,7.09
2019-02-09T21:26:31.308Z,7.17
2019-02-09T21:29:37.230Z,7.14
2019-02-09T21:32:43.136Z,6.93
2019-02-09T21:35:48.883Z,7.02
2019-02-09T21:38:55.786Z,7.20
2019-02-09T21:42:01.601Z,7.14
2019-02-09T21:45:09.156Z,6.39
2019-02-09T21:48:15.019Z,6.39
2019-02-09T21:51:21.798Z,6.61
2019-02-09T21:54:27.572Z,6.78
2019-02-09T21:57:33.380Z,6.84
2019-02-09T22:00:41.265Z,7.08
2019-02-09T22:03:47.042Z,7.18
2019-02-09T22:06:52.824Z,6.54
2019-02-09T22:10:01.637Z,6.93
2019-02-09T22:13:07.797Z,7.15
2019-02-09T22:16:13.755Z,7.29
2019-02-09T22:19:19.573Z,7.38
2019-02-09T22:22:28.803Z,6.94
2019-02-09T22:25:34.681Z,6.76
2019-02-09T22:28:40.456Z,6.58
2019-02-09T22:31:46.437Z,6.92
2019-02-09T22:34:52.234Z,6.92
2019-02-09T22:37:59.118Z,6.86
2019-02-09T22:41:05.008Z,6.65
2019-02-09T22:44:10.818Z,6.68
2019-02-09T22:47:16.615Z,6.50
2019-02-09T22:50:30.967Z,6.43
2019-02-09T22:53:36.848Z,6.65
2019-02-09T22:56:42.638Z,6.70
2019-02-09T22:59:48.642Z,6.25
2019-02-09T23:02:54.510Z,5.10
2019-02-09T23:06:41.797Z,4.87
2019-02-09T23:09:47.598Z,5.31
2019-02-09T23:12:53.367Z,5.94
2019-02-09T23:15:59.272Z,6.22
2019-02-09T23:19:05.332Z,5.98
2019-02-09T23:22:11.256Z,6.13
2019-02-09T23:25:17.002Z,6.27
2019-02-09T23:28:23.888Z,6.25
2019-02-09T23:31:29.777Z,6.38
2019-02-09T23:34:35.632Z,6.43
2019-02-09T23:37:41.398Z,6.47
2019-02-09T23:40:47.168Z,6.44
2019-02-09T23:43:52.941Z,6.50
2019-02-09T23:46:58.932Z,6.17
2019-02-09T23:50:06.051Z,5.30
2019-02-09T23:53:11.834Z,5.83
2019-02-09T23:56:17.592Z,5.63
2019-02-09T23:59:23.383Z,5.12
